sensor_id;sensor_type;location;lat;lon;timestamp;P1;durP1;ratioP1;P2;durP2;ratioP2
49578;SDS011;35483;50.828;3.228;2022-08-03T00:02:11;5.13;;;1.65;;
49578;SDS011;35483;50.828;3.228;2022-08-03T00:04:38;4.25;;;1.48;;
49578;SDS011;35483;50.828;3.228;2022-08-03T00:07:07;6.18;;;1.63;;
49578;SDS011;35483;50.828;3.228;2022-08-03T00:09:39;4.35;;;1.60;;
49578;SDS011;35483;50.828;3.228;2022-08-03T00:12:06;4.40;;;1.33;;
49578;SDS011;35483;50.828;3.228;2022-08-03T00:17:04;4.97;;;1.50;;
49578;SDS011;35483;50.828;3.228;2022-08-03T00:19:30;3.13;;;1.40;;
49578;SDS011;35483;50.828;3.228;2022-08-03T00:21:59;3.50;;;1.73;;
49578;SDS011;35483;50.828;3.228;2022-08-03T00:26:58;5.75;;;2.03;;
49578;SDS011;35483;50.828;3.228;2022-08-03T00:32:23;4.38;;;2.13;;
49578;SDS011;35483;50.828;3.228;2022-08-03T00:34:51;7.72;;;1.67;;
49578;SDS011;35483;50.828;3.228;2022-08-03T00:42:18;5.53;;;1.70;;
49578;SDS011;35483;50.828;3.228;2022-08-03T00:44:47;3.13;;;1.52;;
49578;SDS011;35483;50.828;3.228;2022-08-03T00:47:16;5.22;;;1.90;;
49578;SDS011;35483;50.828;3.228;2022-08-03T00:49:45;5.47;;;1.60;;
49578;SDS011;35483;50.828;3.228;2022-08-03T00:54:44;3.47;;;1.50;;
49578;SDS011;35483;50.828;3.228;2022-08-03T00:57:13;4.75;;;1.85;;
49578;SDS011;35483;50.828;3.228;2022-08-03T00:59:41;2.95;;;1.50;;
49578;SDS011;35483;50.828;3.228;2022-08-03T01:02:10;2.90;;;1.70;;
49578;SDS011;35483;50.828;3.228;2022-08-03T01:04:38;3.17;;;1.55;;
49578;SDS011;35483;50.828;3.228;2022-08-03T01:07:23;2.58;;;1.45;;
49578;SDS011;35483;50.828;3.228;2022-08-03T01:10:08;3.03;;;1.70;;
49578;SDS011;35483;50.828;3.228;2022-08-03T01:12:51;2.13;;;1.65;;
49578;SDS011;35483;50.828;3.228;2022-08-03T01:18:15;3.33;;;1.50;;
49578;SDS011;35483;50.828;3.228;2022-08-03T01:20:54;3.67;;;1.67;;
49578;SDS011;35483;50.828;3.228;2022-08-03T01:29:29;4.93;;;1.60;;
49578;SDS011;35483;50.828;3.228;2022-08-03T01:35:09;2.97;;;1.65;;
49578;SDS011;35483;50.828;3.228;2022-08-03T01:37:42;3.75;;;1.83;;
49578;SDS011;35483;50.828;3.228;2022-08-03T01:40:18;5.55;;;2.22;;
49578;SDS011;35483;50.828;3.228;2022-08-03T01:45:24;3.70;;;1.90;;
49578;SDS011;35483;50.828;3.228;2022-08-03T01:47:55;2.85;;;1.55;;
49578;SDS011;35483;50.828;3.228;2022-08-03T01:50:23;5.55;;;1.92;;
49578;SDS011;35483;50.828;3.228;2022-08-03T01:52:55;3.92;;;2.17;;
49578;SDS011;35483;50.828;3.228;2022-08-03T01:55:24;5.60;;;2.13;;
49578;SDS011;35483;50.828;3.228;2022-08-03T01:57:54;4.40;;;1.83;;
49578;SDS011;35483;50.828;3.228;2022-08-03T02:00:24;2.65;;;1.73;;
49578;SDS011;35483;50.828;3.228;2022-08-03T02:02:54;3.97;;;1.77;;
49578;SDS011;35483;50.828;3.228;2022-08-03T02:07:53;5.35;;;2.00;;
49578;SDS011;35483;50.828;3.228;2022-08-03T02:10:20;4.43;;;2.38;;
49578;SDS011;35483;50.828;3.228;2022-08-03T02:15:57;5.50;;;1.80;;
49578;SDS011;35483;50.828;3.228;2022-08-03T02:18:29;6.13;;;1.80;;
49578;SDS011;35483;50.828;3.228;2022-08-03T02:21:02;4.50;;;1.60;;
49578;SDS011;35483;50.828;3.228;2022-08-03T02:23:30;3.90;;;1.50;;
49578;SDS011;35483;50.828;3.228;2022-08-03T02:25:56;3.85;;;2.15;;
49578;SDS011;35483;50.828;3.228;2022-08-03T02:28:29;5.60;;;1.85;;
49578;SDS011;35483;50.828;3.228;2022-08-03T02:31:23;6.55;;;2.03;;
49578;SDS011;35483;50.828;3.228;2022-08-03T02:33:59;4.10;;;1.90;;
49578;SDS011;35483;50.828;3.228;2022-08-03T02:36:29;3.92;;;1.80;;
49578;SDS011;35483;50.828;3.228;2022-08-03T02:39:01;6.88;;;2.35;;
49578;SDS011;35483;50.828;3.228;2022-08-03T02:41:42;7.95;;;2.20;;
49578;SDS011;35483;50.828;3.228;2022-08-03T02:44:12;4.38;;;2.08;;
49578;SDS011;35483;50.828;3.228;2022-08-03T02:46:40;6.32;;;2.25;;
49578;SDS011;35483;50.828;3.228;2022-08-03T02:49:09;4.78;;;1.90;;
49578;SDS011;35483;50.828;3.228;2022-08-03T02:51:37;6.85;;;2.42;;
49578;SDS011;35483;50.828;3.228;2022-08-03T02:54:05;3.58;;;2.25;;
49578;SDS011;35483;50.828;3.228;2022-08-03T02:56:33;6.68;;;2.53;;
49578;SDS011;35483;50.828;3.228;2022-08-03T02:59:00;6.65;;;2.90;;
49578;SDS011;35483;50.828;3.228;2022-08-03T03:01:27;5.75;;;2.33;;
49578;SDS011;35483;50.828;3.228;2022-08-03T03:03:55;5.88;;;2.50;;
49578;SDS011;35483;50.828;3.228;2022-08-03T03:06:22;6.90;;;2.15;;
49578;SDS011;35483;50.828;3.228;2022-08-03T03:08:49;3.42;;;2.33;;
49578;SDS011;35483;50.828;3.228;2022-08-03T03:11:17;6.70;;;2.53;;
49578;SDS011;35483;50.828;3.228;2022-08-03T03:13:45;5.35;;;2.60;;
49578;SDS011;35483;50.828;3.228;2022-08-03T03:16:13;6.10;;;3.03;;
49578;SDS011;35483;50.828;3.228;2022-08-03T03:18:42;5.28;;;3.00;;
49578;SDS011;35483;50.828;3.228;2022-08-03T03:21:09;5.53;;;2.70;;
49578;SDS011;35483;50.828;3.228;2022-08-03T03:23:37;4.60;;;2.60;;
49578;SDS011;35483;50.828;3.228;2022-08-03T03:26:05;7.10;;;3.13;;
49578;SDS011;35483;50.828;3.228;2022-08-03T03:28:32;5.60;;;2.58;;
49578;SDS011;35483;50.828;3.228;2022-08-03T03:31:01;8.32;;;2.90;;
49578;SDS011;35483;50.828;3.228;2022-08-03T03:33:28;6.97;;;3.22;;
49578;SDS011;35483;50.828;3.228;2022-08-03T03:35:54;6.35;;;3.05;;
49578;SDS011;35483;50.828;3.228;2022-08-03T03:38:21;8.68;;;3.03;;
49578;SDS011;35483;50.828;3.228;2022-08-03T03:40:47;7.15;;;3.03;;
49578;SDS011;35483;50.828;3.228;2022-08-03T03:43:13;5.53;;;3.05;;
49578;SDS011;35483;50.828;3.228;2022-08-03T03:45:40;5.05;;;3.00;;
49578;SDS011;35483;50.828;3.228;2022-08-03T03:48:08;5.30;;;3.10;;
49578;SDS011;35483;50.828;3.228;2022-08-03T03:50:35;5.50;;;2.88;;
49578;SDS011;35483;50.828;3.228;2022-08-03T03:53:08;5.93;;;2.92;;
49578;SDS011;35483;50.828;3.228;2022-08-03T03:55:35;6.15;;;2.80;;
49578;SDS011;35483;50.828;3.228;2022-08-03T03:58:02;5.40;;;2.72;;
49578;SDS011;35483;50.828;3.228;2022-08-03T04:00:28;5.38;;;2.38;;
49578;SDS011;35483;50.828;3.228;2022-08-03T04:02:55;3.65;;;2.65;;
49578;SDS011;35483;50.828;3.228;2022-08-03T04:05:21;5.65;;;2.83;;
49578;SDS011;35483;50.828;3.228;2022-08-03T04:08:22;7.07;;;2.70;;
49578;SDS011;35483;50.828;3.228;2022-08-03T04:11:23;5.10;;;2.55;;
49578;SDS011;35483;50.828;3.228;2022-08-03T04:14:31;5.10;;;2.85;;
49578;SDS011;35483;50.828;3.228;2022-08-03T04:20:01;6.82;;;2.97;;
49578;SDS011;35483;50.828;3.228;2022-08-03T04:22:28;6.53;;;2.78;;
49578;SDS011;35483;50.828;3.228;2022-08-03T04:25:00;8.32;;;3.70;;
49578;SDS011;35483;50.828;3.228;2022-08-03T04:27:37;8.80;;;3.15;;
49578;SDS011;35483;50.828;3.228;2022-08-03T04:30:19;8.50;;;3.97;;
49578;SDS011;35483;50.828;3.228;2022-08-03T04:33:01;8.13;;;3.85;;
49578;SDS011;35483;50.828;3.228;2022-08-03T04:35:33;6.75;;;3.35;;
49578;SDS011;35483;50.828;3.228;2022-08-03T04:38:01;7.10;;;4.38;;
49578;SDS011;35483;50.828;3.228;2022-08-03T04:40:33;7.05;;;3.85;;
49578;SDS011;35483;50.828;3.228;2022-08-03T04:43:09;4.70;;;3.80;;
49578;SDS011;35483;50.828;3.228;2022-08-03T04:45:57;6.88;;;4.32;;
49578;SDS011;35483;50.828;3.228;2022-08-03T04:48:57;10.10;;;4.95;;
49578;SDS011;35483;50.828;3.228;2022-08-03T04:51:39;12.50;;;5.10;;
49578;SDS011;35483;50.828;3.228;2022-08-03T04:54:16;10.80;;;5.18;;
49578;SDS011;35483;50.828;3.228;2022-08-03T04:57:00;8.90;;;5.15;;
49578;SDS011;35483;50.828;3.228;2022-08-03T04:59:53;11.15;;;5.32;;
49578;SDS011;35483;50.828;3.228;2022-08-03T05:02:42;10.30;;;5.20;;
49578;SDS011;35483;50.828;3.228;2022-08-03T05:05:38;7.75;;;5.40;;
49578;SDS011;35483;50.828;3.228;2022-08-03T05:08:24;8.07;;;4.63;;
49578;SDS011;35483;50.828;3.228;2022-08-03T05:11:04;8.30;;;4.20;;
49578;SDS011;35483;50.828;3.228;2022-08-03T05:13:49;9.30;;;4.50;;
49578;SDS011;35483;50.828;3.228;2022-08-03T05:16:15;8.93;;;4.13;;
49578;SDS011;35483;50.828;3.228;2022-08-03T05:18:41;6.55;;;3.90;;
49578;SDS011;35483;50.828;3.228;2022-08-03T05:21:08;7.75;;;3.63;;
49578;SDS011;35483;50.828;3.228;2022-08-03T05:23:34;6.03;;;3.83;;
49578;SDS011;35483;50.828;3.228;2022-08-03T05:26:02;8.38;;;4.05;;
49578;SDS011;35483;50.828;3.228;2022-08-03T05:28:29;8.13;;;2.95;;
49578;SDS011;35483;50.828;3.228;2022-08-03T05:30:54;5.50;;;3.22;;
49578;SDS011;35483;50.828;3.228;2022-08-03T05:33:21;7.55;;;3.03;;
49578;SDS011;35483;50.828;3.228;2022-08-03T05:35:47;6.57;;;2.65;;
49578;SDS011;35483;50.828;3.228;2022-08-03T05:38:13;5.03;;;2.50;;
49578;SDS011;35483;50.828;3.228;2022-08-03T05:40:38;9.73;;;2.78;;
49578;SDS011;35483;50.828;3.228;2022-08-03T05:43:04;10.07;;;3.08;;
49578;SDS011;35483;50.828;3.228;2022-08-03T05:45:30;8.88;;;2.60;;
49578;SDS011;35483;50.828;3.228;2022-08-03T05:47:56;10.10;;;2.50;;
49578;SDS011;35483;50.828;3.228;2022-08-03T05:50:22;6.00;;;2.20;;
49578;SDS011;35483;50.828;3.228;2022-08-03T05:52:48;8.35;;;2.50;;
49578;SDS011;35483;50.828;3.228;2022-08-03T05:55:14;10.82;;;3.10;;
49578;SDS011;35483;50.828;3.228;2022-08-03T05:57:50;9.75;;;3.00;;
49578;SDS011;35483;50.828;3.228;2022-08-03T06:00:24;9.90;;;2.72;;
49578;SDS011;35483;50.828;3.228;2022-08-03T06:05:47;6.35;;;2.83;;
49578;SDS011;35483;50.828;3.228;2022-08-03T06:08:38;8.77;;;2.72;;
49578;SDS011;35483;50.828;3.228;2022-08-03T06:11:07;10.57;;;3.13;;
49578;SDS011;35483;50.828;3.228;2022-08-03T06:13:33;7.88;;;2.90;;
49578;SDS011;35483;50.828;3.228;2022-08-03T06:16:00;6.72;;;2.63;;
49578;SDS011;35483;50.828;3.228;2022-08-03T06:18:26;10.43;;;2.75;;
49578;SDS011;35483;50.828;3.228;2022-08-03T06:20:55;10.55;;;3.08;;
49578;SDS011;35483;50.828;3.228;2022-08-03T06:23:33;12.05;;;3.10;;
49578;SDS011;35483;50.828;3.228;2022-08-03T06:26:05;14.02;;;3.78;;
49578;SDS011;35483;50.828;3.228;2022-08-03T06:28:36;15.10;;;3.50;;
49578;SDS011;35483;50.828;3.228;2022-08-03T06:31:02;15.38;;;3.85;;
49578;SDS011;35483;50.828;3.228;2022-08-03T06:33:28;7.80;;;3.30;;
49578;SDS011;35483;50.828;3.228;2022-08-03T06:36:00;15.82;;;4.35;;
49578;SDS011;35483;50.828;3.228;2022-08-03T06:39:01;16.17;;;3.28;;
49578;SDS011;35483;50.828;3.228;2022-08-03T06:41:28;9.93;;;2.75;;
49578;SDS011;35483;50.828;3.228;2022-08-03T06:44:05;11.65;;;3.50;;
49578;SDS011;35483;50.828;3.228;2022-08-03T06:46:31;9.50;;;3.50;;
49578;SDS011;35483;50.828;3.228;2022-08-03T06:48:57;19.45;;;5.35;;
49578;SDS011;35483;50.828;3.228;2022-08-03T06:51:23;20.40;;;4.13;;
49578;SDS011;35483;50.828;3.228;2022-08-03T06:53:52;15.05;;;4.13;;
49578;SDS011;35483;50.828;3.228;2022-08-03T06:56:18;11.00;;;4.00;;
49578;SDS011;35483;50.828;3.228;2022-08-03T06:58:44;13.73;;;3.03;;
49578;SDS011;35483;50.828;3.228;2022-08-03T07:01:13;9.05;;;3.60;;
49578;SDS011;35483;50.828;3.228;2022-08-03T07:03:42;16.70;;;3.35;;
49578;SDS011;35483;50.828;3.228;2022-08-03T07:06:08;13.00;;;3.28;;
49578;SDS011;35483;50.828;3.228;2022-08-03T07:08:35;18.52;;;3.70;;
49578;SDS011;35483;50.828;3.228;2022-08-03T07:11:04;21.15;;;3.88;;
49578;SDS011;35483;50.828;3.228;2022-08-03T07:13:30;8.40;;;2.95;;
49578;SDS011;35483;50.828;3.228;2022-08-03T07:15:56;13.50;;;4.00;;
49578;SDS011;35483;50.828;3.228;2022-08-03T07:18:24;14.27;;;3.47;;
49578;SDS011;35483;50.828;3.228;2022-08-03T07:20:49;9.40;;;2.65;;
49578;SDS011;35483;50.828;3.228;2022-08-03T07:23:15;10.35;;;2.53;;
49578;SDS011;35483;50.828;3.228;2022-08-03T07:25:42;9.00;;;2.42;;
49578;SDS011;35483;50.828;3.228;2022-08-03T07:28:08;11.63;;;2.80;;
49578;SDS011;35483;50.828;3.228;2022-08-03T07:30:34;10.20;;;2.72;;
49578;SDS011;35483;50.828;3.228;2022-08-03T07:33:00;8.60;;;2.92;;
49578;SDS011;35483;50.828;3.228;2022-08-03T07:35:29;10.55;;;2.63;;
49578;SDS011;35483;50.828;3.228;2022-08-03T07:40:24;7.65;;;2.70;;
49578;SDS011;35483;50.828;3.228;2022-08-03T07:42:51;6.75;;;2.75;;
49578;SDS011;35483;50.828;3.228;2022-08-03T07:45:20;8.10;;;2.47;;
49578;SDS011;35483;50.828;3.228;2022-08-03T07:47:49;7.47;;;2.35;;
49578;SDS011;35483;50.828;3.228;2022-08-03T07:50:14;10.90;;;2.88;;
49578;SDS011;35483;50.828;3.228;2022-08-03T07:52:40;10.27;;;3.22;;
49578;SDS011;35483;50.828;3.228;2022-08-03T07:55:15;7.35;;;2.67;;
49578;SDS011;35483;50.828;3.228;2022-08-03T07:57:46;8.70;;;3.03;;
49578;SDS011;35483;50.828;3.228;2022-08-03T08:00:23;8.38;;;2.72;;
49578;SDS011;35483;50.828;3.228;2022-08-03T08:02:49;5.72;;;2.25;;
49578;SDS011;35483;50.828;3.228;2022-08-03T08:05:16;8.57;;;2.92;;
49578;SDS011;35483;50.828;3.228;2022-08-03T08:07:42;8.25;;;2.70;;
49578;SDS011;35483;50.828;3.228;2022-08-03T08:10:10;7.78;;;2.50;;
49578;SDS011;35483;50.828;3.228;2022-08-03T08:12:36;8.23;;;2.42;;
49578;SDS011;35483;50.828;3.228;2022-08-03T08:15:03;5.32;;;2.20;;
49578;SDS011;35483;50.828;3.228;2022-08-03T08:17:39;5.63;;;2.22;;
49578;SDS011;35483;50.828;3.228;2022-08-03T08:20:19;7.40;;;2.40;;
49578;SDS011;35483;50.828;3.228;2022-08-03T08:22:48;7.80;;;2.22;;
49578;SDS011;35483;50.828;3.228;2022-08-03T08:25:17;8.95;;;2.35;;
49578;SDS011;35483;50.828;3.228;2022-08-03T08:27:45;7.30;;;2.20;;
49578;SDS011;35483;50.828;3.228;2022-08-03T08:30:17;6.97;;;2.20;;
49578;SDS011;35483;50.828;3.228;2022-08-03T08:32:49;7.82;;;2.35;;
49578;SDS011;35483;50.828;3.228;2022-08-03T08:35:15;8.38;;;2.40;;
49578;SDS011;35483;50.828;3.228;2022-08-03T08:37:42;6.15;;;2.45;;
49578;SDS011;35483;50.828;3.228;2022-08-03T08:40:10;12.90;;;2.50;;
49578;SDS011;35483;50.828;3.228;2022-08-03T08:42:38;7.88;;;2.33;;
49578;SDS011;35483;50.828;3.228;2022-08-03T08:45:05;8.23;;;2.67;;
49578;SDS011;35483;50.828;3.228;2022-08-03T08:47:37;7.80;;;2.80;;
49578;SDS011;35483;50.828;3.228;2022-08-03T08:52:38;10.15;;;2.67;;
49578;SDS011;35483;50.828;3.228;2022-08-03T08:55:09;6.50;;;2.25;;
49578;SDS011;35483;50.828;3.228;2022-08-03T08:57:41;6.00;;;2.03;;
49578;SDS011;35483;50.828;3.228;2022-08-03T09:00:12;8.35;;;2.40;;
49578;SDS011;35483;50.828;3.228;2022-08-03T09:02:38;7.72;;;1.90;;
49578;SDS011;35483;50.828;3.228;2022-08-03T09:07:38;7.05;;;2.38;;
49578;SDS011;35483;50.828;3.228;2022-08-03T09:10:05;7.93;;;2.10;;
49578;SDS011;35483;50.828;3.228;2022-08-03T09:12:36;11.13;;;2.40;;
49578;SDS011;35483;50.828;3.228;2022-08-03T09:15:20;5.30;;;2.00;;
49578;SDS011;35483;50.828;3.228;2022-08-03T09:17:48;5.15;;;2.08;;
49578;SDS011;35483;50.828;3.228;2022-08-03T09:20:15;6.30;;;1.88;;
49578;SDS011;35483;50.828;3.228;2022-08-03T09:23:02;6.28;;;2.22;;
49578;SDS011;35483;50.828;3.228;2022-08-03T09:25:35;4.72;;;2.15;;
49578;SDS011;35483;50.828;3.228;2022-08-03T09:28:12;6.90;;;2.38;;
49578;SDS011;35483;50.828;3.228;2022-08-03T09:30:42;6.78;;;1.88;;
49578;SDS011;35483;50.828;3.228;2022-08-03T09:33:12;7.15;;;1.75;;
49578;SDS011;35483;50.828;3.228;2022-08-03T09:35:44;4.65;;;1.92;;
49578;SDS011;35483;50.828;3.228;2022-08-03T09:38:12;6.45;;;2.05;;
49578;SDS011;35483;50.828;3.228;2022-08-03T09:40:39;6.18;;;1.90;;
49578;SDS011;35483;50.828;3.228;2022-08-03T09:43:06;6.43;;;1.70;;
49578;SDS011;35483;50.828;3.228;2022-08-03T09:45:34;5.20;;;1.88;;
49578;SDS011;35483;50.828;3.228;2022-08-03T09:48:22;2.97;;;1.45;;
49578;SDS011;35483;50.828;3.228;2022-08-03T09:50:53;5.40;;;2.20;;
49578;SDS011;35483;50.828;3.228;2022-08-03T09:53:23;6.75;;;2.42;;
49578;SDS011;35483;50.828;3.228;2022-08-03T09:55:49;6.03;;;1.80;;
49578;SDS011;35483;50.828;3.228;2022-08-03T09:58:16;5.35;;;1.77;;
49578;SDS011;35483;50.828;3.228;2022-08-03T10:01:01;5.53;;;1.90;;
49578;SDS011;35483;50.828;3.228;2022-08-03T10:03:31;4.60;;;1.85;;
49578;SDS011;35483;50.828;3.228;2022-08-03T10:05:59;6.00;;;2.17;;
49578;SDS011;35483;50.828;3.228;2022-08-03T10:09:12;5.50;;;1.83;;
49578;SDS011;35483;50.828;3.228;2022-08-03T10:11:40;5.55;;;1.52;;
49578;SDS011;35483;50.828;3.228;2022-08-03T10:14:08;6.55;;;1.63;;
49578;SDS011;35483;50.828;3.228;2022-08-03T10:16:42;4.85;;;1.45;;
49578;SDS011;35483;50.828;3.228;2022-08-03T10:19:09;3.88;;;1.63;;
49578;SDS011;35483;50.828;3.228;2022-08-03T10:21:37;6.63;;;1.88;;
49578;SDS011;35483;50.828;3.228;2022-08-03T10:24:05;4.13;;;1.40;;
49578;SDS011;35483;50.828;3.228;2022-08-03T10:26:33;6.93;;;1.88;;
49578;SDS011;35483;50.828;3.228;2022-08-03T10:29:03;4.78;;;1.80;;
49578;SDS011;35483;50.828;3.228;2022-08-03T10:31:38;6.28;;;1.80;;
49578;SDS011;35483;50.828;3.228;2022-08-03T10:34:08;3.15;;;1.38;;
49578;SDS011;35483;50.828;3.228;2022-08-03T10:36:37;5.88;;;1.90;;
49578;SDS011;35483;50.828;3.228;2022-08-03T10:39:04;4.60;;;2.00;;
49578;SDS011;35483;50.828;3.228;2022-08-03T10:41:31;4.75;;;1.65;;
49578;SDS011;35483;50.828;3.228;2022-08-03T10:44:04;4.78;;;1.77;;
49578;SDS011;35483;50.828;3.228;2022-08-03T10:49:00;5.55;;;2.08;;
49578;SDS011;35483;50.828;3.228;2022-08-03T10:51:27;5.57;;;1.70;;
49578;SDS011;35483;50.828;3.228;2022-08-03T10:53:56;5.28;;;1.88;;
49578;SDS011;35483;50.828;3.228;2022-08-03T10:59:21;6.40;;;1.60;;
49578;SDS011;35483;50.828;3.228;2022-08-03T11:02:11;3.78;;;1.92;;
49578;SDS011;35483;50.828;3.228;2022-08-03T11:04:38;4.47;;;1.60;;
49578;SDS011;35483;50.828;3.228;2022-08-03T11:07:23;5.97;;;1.77;;
49578;SDS011;35483;50.828;3.228;2022-08-03T11:09:50;4.07;;;1.65;;
49578;SDS011;35483;50.828;3.228;2022-08-03T11:12:24;5.35;;;1.50;;
49578;SDS011;35483;50.828;3.228;2022-08-03T11:14:55;6.22;;;1.80;;
49578;SDS011;35483;50.828;3.228;2022-08-03T11:17:22;3.25;;;1.45;;
49578;SDS011;35483;50.828;3.228;2022-08-03T11:19:49;5.15;;;1.70;;
49578;SDS011;35483;50.828;3.228;2022-08-03T11:22:16;1.80;;;1.58;;
49578;SDS011;35483;50.828;3.228;2022-08-03T11:27:31;3.17;;;1.73;;
49578;SDS011;35483;50.828;3.228;2022-08-03T11:30:11;5.18;;;1.77;;
49578;SDS011;35483;50.828;3.228;2022-08-03T11:32:56;5.45;;;1.30;;
49578;SDS011;35483;50.828;3.228;2022-08-03T11:35:27;4.35;;;1.52;;
49578;SDS011;35483;50.828;3.228;2022-08-03T11:40:34;2.67;;;1.40;;
49578;SDS011;35483;50.828;3.228;2022-08-03T11:43:05;4.38;;;1.60;;
49578;SDS011;35483;50.828;3.228;2022-08-03T11:45:35;2.10;;;1.20;;
49578;SDS011;35483;50.828;3.228;2022-08-03T11:48:09;5.45;;;2.05;;
49578;SDS011;35483;50.828;3.228;2022-08-03T11:50:39;4.70;;;1.65;;
49578;SDS011;35483;50.828;3.228;2022-08-03T11:53:11;3.67;;;1.30;;
49578;SDS011;35483;50.828;3.228;2022-08-03T11:55:39;4.28;;;1.40;;
49578;SDS011;35483;50.828;3.228;2022-08-03T11:58:07;3.60;;;1.40;;
49578;SDS011;35483;50.828;3.228;2022-08-03T12:00:33;2.47;;;1.55;;
49578;SDS011;35483;50.828;3.228;2022-08-03T12:03:07;4.47;;;2.03;;
49578;SDS011;35483;50.828;3.228;2022-08-03T12:05:39;2.50;;;1.40;;
49578;SDS011;35483;50.828;3.228;2022-08-03T12:08:06;4.28;;;1.45;;
49578;SDS011;35483;50.828;3.228;2022-08-03T12:10:33;5.32;;;1.50;;
49578;SDS011;35483;50.828;3.228;2022-08-03T12:13:01;3.50;;;1.60;;
49578;SDS011;35483;50.828;3.228;2022-08-03T12:15:31;6.60;;;1.70;;
49578;SDS011;35483;50.828;3.228;2022-08-03T12:18:01;3.17;;;1.88;;
49578;SDS011;35483;50.828;3.228;2022-08-03T12:20:30;3.83;;;1.60;;
49578;SDS011;35483;50.828;3.228;2022-08-03T12:23:04;4.40;;;1.63;;
49578;SDS011;35483;50.828;3.228;2022-08-03T12:25:31;2.42;;;1.40;;
49578;SDS011;35483;50.828;3.228;2022-08-03T12:28:05;3.53;;;1.30;;
49578;SDS011;35483;50.828;3.228;2022-08-03T12:30:34;2.70;;;1.42;;
49578;SDS011;35483;50.828;3.228;2022-08-03T12:33:11;3.25;;;1.58;;
49578;SDS011;35483;50.828;3.228;2022-08-03T12:35:37;3.75;;;1.52;;
49578;SDS011;35483;50.828;3.228;2022-08-03T12:38:03;3.22;;;1.50;;
49578;SDS011;35483;50.828;3.228;2022-08-03T12:40:29;3.70;;;1.17;;
49578;SDS011;35483;50.828;3.228;2022-08-03T12:42:55;2.67;;;1.40;;
49578;SDS011;35483;50.828;3.228;2022-08-03T12:45:22;2.75;;;1.52;;
49578;SDS011;35483;50.828;3.228;2022-08-03T12:47:58;1.60;;;1.20;;
49578;SDS011;35483;50.828;3.228;2022-08-03T12:50:33;2.90;;;1.52;;
49578;SDS011;35483;50.828;3.228;2022-08-03T12:53:02;3.83;;;1.40;;
49578;SDS011;35483;50.828;3.228;2022-08-03T12:55:30;3.05;;;1.58;;
49578;SDS011;35483;50.828;3.228;2022-08-03T12:58:05;4.70;;;1.40;;
49578;SDS011;35483;50.828;3.228;2022-08-03T13:00:35;3.20;;;1.27;;
49578;SDS011;35483;50.828;3.228;2022-08-03T13:03:03;2.80;;;1.30;;
49578;SDS011;35483;50.828;3.228;2022-08-03T13:05:31;2.65;;;1.60;;
49578;SDS011;35483;50.828;3.228;2022-08-03T13:08:16;1.92;;;1.20;;
49578;SDS011;35483;50.828;3.228;2022-08-03T13:10:46;4.15;;;1.02;;
49578;SDS011;35483;50.828;3.228;2022-08-03T13:13:13;2.22;;;1.27;;
49578;SDS011;35483;50.828;3.228;2022-08-03T13:15:39;4.07;;;1.42;;
49578;SDS011;35483;50.828;3.228;2022-08-03T13:18:05;2.72;;;1.17;;
49578;SDS011;35483;50.828;3.228;2022-08-03T13:20:30;1.48;;;1.17;;
49578;SDS011;35483;50.828;3.228;2022-08-03T13:22:56;3.08;;;1.25;;
49578;SDS011;35483;50.828;3.228;2022-08-03T13:25:22;3.10;;;1.10;;
49578;SDS011;35483;50.828;3.228;2022-08-03T13:27:49;1.85;;;0.95;;
49578;SDS011;35483;50.828;3.228;2022-08-03T13:30:16;3.92;;;1.25;;
49578;SDS011;35483;50.828;3.228;2022-08-03T13:32:42;2.67;;;1.13;;
49578;SDS011;35483;50.828;3.228;2022-08-03T13:35:09;2.38;;;1.20;;
49578;SDS011;35483;50.828;3.228;2022-08-03T13:37:35;2.78;;;1.08;;
49578;SDS011;35483;50.828;3.228;2022-08-03T13:40:02;3.58;;;1.00;;
49578;SDS011;35483;50.828;3.228;2022-08-03T13:42:30;2.38;;;1.30;;
49578;SDS011;35483;50.828;3.228;2022-08-03T13:44:57;2.13;;;1.20;;
49578;SDS011;35483;50.828;3.228;2022-08-03T13:47:24;1.92;;;1.20;;
49578;SDS011;35483;50.828;3.228;2022-08-03T13:49:50;4.20;;;1.20;;
49578;SDS011;35483;50.828;3.228;2022-08-03T13:52:17;2.22;;;1.17;;
49578;SDS011;35483;50.828;3.228;2022-08-03T13:54:43;8.82;;;2.35;;
49578;SDS011;35483;50.828;3.228;2022-08-03T13:57:10;3.10;;;1.48;;
49578;SDS011;35483;50.828;3.228;2022-08-03T13:59:35;1.75;;;1.05;;
49578;SDS011;35483;50.828;3.228;2022-08-03T14:02:02;3.40;;;1.65;;
49578;SDS011;35483;50.828;3.228;2022-08-03T14:04:28;4.40;;;1.35;;
49578;SDS011;35483;50.828;3.228;2022-08-03T14:06:54;6.00;;;1.60;;
49578;SDS011;35483;50.828;3.228;2022-08-03T14:09:20;2.17;;;1.10;;
49578;SDS011;35483;50.828;3.228;2022-08-03T14:11:46;3.13;;;1.10;;
49578;SDS011;35483;50.828;3.228;2022-08-03T14:14:12;2.20;;;1.38;;
49578;SDS011;35483;50.828;3.228;2022-08-03T14:16:38;3.20;;;1.17;;
49578;SDS011;35483;50.828;3.228;2022-08-03T14:19:04;2.67;;;1.05;;
49578;SDS011;35483;50.828;3.228;2022-08-03T14:21:30;2.20;;;1.27;;
49578;SDS011;35483;50.828;3.228;2022-08-03T14:23:57;3.65;;;1.63;;
49578;SDS011;35483;50.828;3.228;2022-08-03T14:26:23;2.20;;;1.05;;
49578;SDS011;35483;50.828;3.228;2022-08-03T14:28:49;2.28;;;1.10;;
49578;SDS011;35483;50.828;3.228;2022-08-03T14:31:15;2.35;;;1.20;;
49578;SDS011;35483;50.828;3.228;2022-08-03T14:33:40;4.07;;;1.55;;
49578;SDS011;35483;50.828;3.228;2022-08-03T14:36:06;2.65;;;1.50;;
49578;SDS011;35483;50.828;3.228;2022-08-03T14:38:32;3.13;;;1.15;;
49578;SDS011;35483;50.828;3.228;2022-08-03T14:40:58;2.75;;;1.25;;
49578;SDS011;35483;50.828;3.228;2022-08-03T14:43:23;3.20;;;1.17;;
49578;SDS011;35483;50.828;3.228;2022-08-03T14:45:50;2.22;;;1.30;;
49578;SDS011;35483;50.828;3.228;2022-08-03T14:48:21;3.78;;;1.10;;
49578;SDS011;35483;50.828;3.228;2022-08-03T14:50:47;1.25;;;0.93;;
49578;SDS011;35483;50.828;3.228;2022-08-03T14:53:13;1.45;;;0.93;;
49578;SDS011;35483;50.828;3.228;2022-08-03T14:55:41;1.73;;;1.00;;
49578;SDS011;35483;50.828;3.228;2022-08-03T14:58:07;3.38;;;1.20;;
49578;SDS011;35483;50.828;3.228;2022-08-03T15:00:34;1.30;;;1.05;;
49578;SDS011;35483;50.828;3.228;2022-08-03T15:03:03;2.95;;;1.25;;
49578;SDS011;35483;50.828;3.228;2022-08-03T15:05:29;2.58;;;1.30;;
49578;SDS011;35483;50.828;3.228;2022-08-03T15:07:56;1.73;;;1.05;;
49578;SDS011;35483;50.828;3.228;2022-08-03T15:10:22;3.97;;;1.02;;
49578;SDS011;35483;50.828;3.228;2022-08-03T15:12:47;1.58;;;0.85;;
49578;SDS011;35483;50.828;3.228;2022-08-03T15:15:13;2.22;;;1.30;;
49578;SDS011;35483;50.828;3.228;2022-08-03T15:17:39;1.55;;;1.08;;
49578;SDS011;35483;50.828;3.228;2022-08-03T15:20:05;1.00;;;0.90;;
49578;SDS011;35483;50.828;3.228;2022-08-03T15:22:32;1.58;;;0.95;;
49578;SDS011;35483;50.828;3.228;2022-08-03T15:24:59;1.25;;;0.90;;
49578;SDS011;35483;50.828;3.228;2022-08-03T15:27:28;3.63;;;1.25;;
49578;SDS011;35483;50.828;3.228;2022-08-03T15:29:53;2.25;;;0.88;;
49578;SDS011;35483;50.828;3.228;2022-08-03T15:32:19;2.63;;;1.10;;
49578;SDS011;35483;50.828;3.228;2022-08-03T15:34:45;2.53;;;0.90;;
49578;SDS011;35483;50.828;3.228;2022-08-03T15:37:11;1.33;;;1.10;;
49578;SDS011;35483;50.828;3.228;2022-08-03T15:39:37;4.65;;;1.23;;
49578;SDS011;35483;50.828;3.228;2022-08-03T15:42:03;4.40;;;1.23;;
49578;SDS011;35483;50.828;3.228;2022-08-03T15:44:29;5.65;;;1.45;;
49578;SDS011;35483;50.828;3.228;2022-08-03T15:46:55;3.40;;;1.15;;
49578;SDS011;35483;50.828;3.228;2022-08-03T15:49:21;6.82;;;1.42;;
49578;SDS011;35483;50.828;3.228;2022-08-03T15:51:47;2.55;;;1.10;;
49578;SDS011;35483;50.828;3.228;2022-08-03T15:54:12;2.47;;;1.00;;
49578;SDS011;35483;50.828;3.228;2022-08-03T15:56:38;2.90;;;1.30;;
49578;SDS011;35483;50.828;3.228;2022-08-03T15:59:05;3.55;;;1.25;;
49578;SDS011;35483;50.828;3.228;2022-08-03T16:01:32;2.33;;;1.13;;
49578;SDS011;35483;50.828;3.228;2022-08-03T16:03:58;1.75;;;1.10;;